createdAt,value
2019-03-03T00:01:05.038Z,15.60
2019-03-03T00:03:34.187Z,16.43
2019-03-03T00:06:03.097Z,15.60
2019-03-03T00:08:31.985Z,11.40
2019-03-03T00:11:00.766Z,10.90
2019-03-03T00:13:29.630Z,12.90
2019-03-03T00:15:58.735Z,14.20
2019-03-03T00:18:27.591Z,15.90
2019-03-03T00:20:56.800Z,10.90
2019-03-03T00:23:25.157Z,11.87
2019-03-03T00:25:53.988Z,10.00
2019-03-03T00:28:22.877Z,14.73
2019-03-03T00:30:52.068Z,10.37
2019-03-03T00:33:20.940Z,12.53
2019-03-03T00:35:49.769Z,11.10
2019-03-03T00:38:26.724Z,10.93
2019-03-03T00:41:17.512Z,9.60
2019-03-03T00:44:02.321Z,14.47
2019-03-03T00:46:48.639Z,11.03
2019-03-03T00:49:39.567Z,16.03
2019-03-03T00:52:39.651Z,15.83
2019-03-03T00:55:26.217Z,10.13
2019-03-03T00:58:13.335Z,11.13
2019-03-03T01:00:51.001Z,14.53
2019-03-03T01:03:39.126Z,10.63
2019-03-03T01:06:37.678Z,10.53
2019-03-03T01:09:37.791Z,11.63
2019-03-03T01:12:24.350Z,11.40
2019-03-03T01:15:17.905Z,12.20
2019-03-03T01:18:01.967Z,14.93
2019-03-03T01:20:36.347Z,10.17
2019-03-03T01:23:24.207Z,11.20
2019-03-03T01:25:52.972Z,20.30
2019-03-03T01:28:21.709Z,10.93
2019-03-03T01:30:50.781Z,13.33
2019-03-03T01:33:19.629Z,12.90
2019-03-03T01:35:48.513Z,11.77
2019-03-03T01:38:17.331Z,13.30
2019-03-03T01:40:46.130Z,11.30
2019-03-03T01:43:14.605Z,11.13
2019-03-03T01:45:43.375Z,11.60
2019-03-03T01:48:12.406Z,9.43
2019-03-03T01:50:41.158Z,11.03
2019-03-03T01:53:09.935Z,11.27
2019-03-03T01:55:38.671Z,9.53
2019-03-03T01:58:07.421Z,8.93
2019-03-03T02:00:36.214Z,8.10
2019-03-03T02:03:05.017Z,11.63
2019-03-03T02:05:33.800Z,10.23
2019-03-03T02:08:02.605Z,7.90
2019-03-03T02:10:31.401Z,11.00
2019-03-03T02:13:00.161Z,7.47
2019-03-03T02:15:28.901Z,11.00
2019-03-03T02:17:57.742Z,8.20
2019-03-03T02:20:26.717Z,7.23
2019-03-03T02:22:55.829Z,18.60
2019-03-03T02:25:24.258Z,8.10
2019-03-03T02:27:53.438Z,7.83
2019-03-03T02:30:22.479Z,7.73
2019-03-03T02:32:51.303Z,5.47
2019-03-03T02:35:20.114Z,8.17
2019-03-03T02:37:48.843Z,9.60
2019-03-03T02:40:17.832Z,7.00
2019-03-03T02:42:47.600Z,7.20
2019-03-03T02:45:16.429Z,6.93
2019-03-03T02:47:44.879Z,5.73
2019-03-03T02:50:13.759Z,8.00
2019-03-03T02:52:42.544Z,5.40
2019-03-03T02:55:12.313Z,6.90
2019-03-03T02:57:41.067Z,4.27
2019-03-03T03:00:14.089Z,7.40
2019-03-03T03:02:47.956Z,6.63
2019-03-03T03:05:21.738Z,5.30
2019-03-03T03:07:55.161Z,6.43
2019-03-03T03:10:48.677Z,5.73
2019-03-03T03:13:48.939Z,6.37
2019-03-03T03:16:32.650Z,6.27
2019-03-03T03:19:08.470Z,5.17
2019-03-03T03:21:50.907Z,10.10
2019-03-03T03:24:27.857Z,10.80
2019-03-03T03:27:16.067Z,5.70
2019-03-03T03:30:02.789Z,4.90
2019-03-03T03:32:56.989Z,4.67
2019-03-03T03:35:30.708Z,5.70
2019-03-03T03:38:14.923Z,7.93
2019-03-03T03:40:52.971Z,7.70
2019-03-03T03:43:39.470Z,5.70
2019-03-03T03:46:30.427Z,8.40
2019-03-03T03:49:24.683Z,4.87
2019-03-03T03:52:15.946Z,7.30
2019-03-03T03:55:02.594Z,5.10
2019-03-03T03:57:40.580Z,7.47
2019-03-03T04:00:31.796Z,13.17
2019-03-03T04:03:25.676Z,11.53
2019-03-03T04:06:09.931Z,8.80
2019-03-03T04:09:01.989Z,7.20
2019-03-03T04:11:37.314Z,11.13
2019-03-03T04:14:32.229Z,13.83
2019-03-03T04:17:18.813Z,8.43
2019-03-03T04:20:03.852Z,9.80
2019-03-03T04:22:47.724Z,6.60
2019-03-03T04:25:33.011Z,13.53
2019-03-03T04:28:12.401Z,5.40
2019-03-03T04:30:58.746Z,11.90
2019-03-03T04:33:41.996Z,12.40
2019-03-03T04:36:28.471Z,6.53
2019-03-03T04:39:10.559Z,6.23
2019-03-03T04:41:57.280Z,4.90
2019-03-03T04:44:45.106Z,5.17
2019-03-03T04:47:22.510Z,4.17
2019-03-03T04:50:13.258Z,3.10
2019-03-03T04:52:50.691Z,3.43
2019-03-03T04:55:56.698Z,3.10
2019-03-03T04:58:53.265Z,4.00
2019-03-03T05:01:29.967Z,2.70
2019-03-03T05:04:09.078Z,7.70
2019-03-03T05:06:49.940Z,3.73
2019-03-03T05:09:28.183Z,8.53
2019-03-03T05:12:40.665Z,6.70
2019-03-03T05:15:33.282Z,14.33
2019-03-03T05:18:13.494Z,6.97
2019-03-03T05:20:47.047Z,6.40
2019-03-03T05:23:15.885Z,3.20
2019-03-03T05:25:44.989Z,3.70
2019-03-03T05:28:13.453Z,3.03
2019-03-03T05:30:42.339Z,5.87
2019-03-03T05:33:11.114Z,6.80
2019-03-03T05:35:39.885Z,5.50
2019-03-03T05:38:08.639Z,5.70
2019-03-03T05:40:37.778Z,4.83
2019-03-03T05:43:06.598Z,5.47
2019-03-03T05:45:35.470Z,3.97
2019-03-03T05:48:04.290Z,6.23
2019-03-03T05:50:32.739Z,4.40
2019-03-03T05:53:01.534Z,5.57
2019-03-03T05:55:30.347Z,5.00
2019-03-03T05:57:59.302Z,9.67
2019-03-03T06:00:28.162Z,4.83
2019-03-03T06:02:56.922Z,5.63
2019-03-03T06:05:26.023Z,5.77
2019-03-03T06:07:54.918Z,5.37
2019-03-03T06:10:23.841Z,6.57
2019-03-03T06:12:52.209Z,5.47
2019-03-03T06:15:21.005Z,4.03
2019-03-03T06:17:49.733Z,7.03
2019-03-03T06:20:18.518Z,4.60
2019-03-03T06:22:47.339Z,14.47
2019-03-03T06:25:16.185Z,4.20
2019-03-03T06:27:45.096Z,4.77
2019-03-03T06:30:14.261Z,6.47
2019-03-03T06:32:43.110Z,4.93
2019-03-03T06:35:11.498Z,5.33
2019-03-03T06:37:40.243Z,5.37
2019-03-03T06:40:09.656Z,11.67
2019-03-03T06:42:38.441Z,28.40
2019-03-03T06:45:08.356Z,18.17
2019-03-03T06:47:37.139Z,11.30
2019-03-03T06:50:07.687Z,12.40
2019-03-03T06:52:36.446Z,10.40
2019-03-03T06:55:05.615Z,5.50
2019-03-03T06:57:33.946Z,4.37
2019-03-03T07:00:02.704Z,11.83
2019-03-03T07:02:31.579Z,8.50
2019-03-03T07:05:00.372Z,5.80
2019-03-03T07:07:29.337Z,4.47
2019-03-03T07:09:58.231Z,5.50
2019-03-03T07:12:27.183Z,5.67
2019-03-03T07:14:56.049Z,7.07
2019-03-03T07:17:24.866Z,4.77
2019-03-03T07:19:53.654Z,6.53
2019-03-03T07:22:22.405Z,4.20
2019-03-03T07:24:51.286Z,2.43
2019-03-03T07:27:20.107Z,3.60
2019-03-03T07:29:48.891Z,5.27
2019-03-03T07:32:18.042Z,4.17
2019-03-03T07:34:47.165Z,6.27
2019-03-03T07:37:16.423Z,3.53
2019-03-03T07:39:45.260Z,2.40
2019-03-03T07:42:13.719Z,2.90
2019-03-03T07:44:43.153Z,2.50
2019-03-03T07:47:12.418Z,4.30
2019-03-03T07:49:41.248Z,8.33
2019-03-03T07:52:10.022Z,3.07
2019-03-03T07:54:38.735Z,11.87
2019-03-03T07:57:07.498Z,10.30
2019-03-03T07:59:36.231Z,8.53
2019-03-03T08:02:04.625Z,10.60
2019-03-03T08:04:33.876Z,4.30
2019-03-03T08:07:02.751Z,2.67
2019-03-03T08:09:31.654Z,2.07
2019-03-03T08:12:00.620Z,2.93
2019-03-03T08:14:29.589Z,4.50
2019-03-03T08:16:59.015Z,3.10
2019-03-03T08:19:27.990Z,3.70
2019-03-03T08:21:56.904Z,4.07
2019-03-03T08:24:25.399Z,3.50
2019-03-03T08:26:54.266Z,3.60
2019-03-03T08:29:23.124Z,3.27
2019-03-03T08:31:51.946Z,3.93
2019-03-03T08:34:20.807Z,1.60
2019-03-03T08:36:49.790Z,5.07
2019-03-03T08:39:18.678Z,6.53
2019-03-03T08:41:51.289Z,2.67
2019-03-03T08:44:23.769Z,2.27
2019-03-03T08:47:20.510Z,1.83
2019-03-03T08:50:16.857Z,1.87
2019-03-03T08:53:07.137Z,3.47
2019-03-03T08:55:49.156Z,3.90
2019-03-03T08:58:40.631Z,2.40
2019-03-03T09:01:31.698Z,2.40
2019-03-03T09:04:16.650Z,1.37
2019-03-03T09:07:07.179Z,2.43
2019-03-03T09:09:52.075Z,3.30
2019-03-03T09:12:43.318Z,2.17
2019-03-03T09:15:29.952Z,2.33
2019-03-03T09:18:16.810Z,1.90
2019-03-03T09:20:54.846Z,2.20
2019-03-03T09:23:48.569Z,5.87
2019-03-03T09:26:36.760Z,4.00
2019-03-03T09:29:27.732Z,1.60
2019-03-03T09:32:18.404Z,3.53
2019-03-03T09:35:15.151Z,10.00
2019-03-03T09:37:52.938Z,2.30
2019-03-03T09:40:27.882Z,2.63
2019-03-03T09:43:14.440Z,1.50
2019-03-03T09:46:11.419Z,2.13
2019-03-03T09:48:59.285Z,1.53
2019-03-03T09:51:52.985Z,3.57
2019-03-03T09:54:40.856Z,2.63
2019-03-03T09:57:28.151Z,4.53
2019-03-03T10:00:06.778Z,2.23
2019-03-03T10:02:48.158Z,1.47
2019-03-03T10:05:36.398Z,2.83
2019-03-03T10:08:18.715Z,2.93
2019-03-03T10:11:09.235Z,3.17
2019-03-03T10:13:46.820Z,4.33
2019-03-03T10:16:26.013Z,1.47
2019-03-03T10:19:20.787Z,3.13
2019-03-03T10:21:58.732Z,7.90
2019-03-03T10:24:46.543Z,2.30
2019-03-03T10:27:23.543Z,1.40
2019-03-03T10:30:10.348Z,3.17
2019-03-03T10:33:07.213Z,1.97
2019-03-03T10:35:56.338Z,2.40
2019-03-03T10:38:36.340Z,4.70
2019-03-03T10:41:24.006Z,2.00
2019-03-03T10:44:27.194Z,5.13
2019-03-03T10:47:11.953Z,3.23
2019-03-03T10:49:49.316Z,1.80
2019-03-03T10:52:43.105Z,1.70
2019-03-03T10:55:37.005Z,2.40
2019-03-03T10:58:21.714Z,2.40
2019-03-03T11:01:17.326Z,2.20
2019-03-03T11:03:53.026Z,2.63
2019-03-03T11:06:46.842Z,2.50
2019-03-03T11:09:50.586Z,2.97
2019-03-03T11:12:47.062Z,3.90
2019-03-03T11:15:46.710Z,2.50
2019-03-03T11:18:31.800Z,1.37
2019-03-03T11:21:16.957Z,1.37
2019-03-03T11:23:51.837Z,4.70
2019-03-03T11:26:39.660Z,1.43
2019-03-03T11:29:13.238Z,1.80
2019-03-03T11:32:07.306Z,1.50
2019-03-03T11:35:10.532Z,3.47
2019-03-03T11:37:57.125Z,1.57
2019-03-03T11:40:43.865Z,1.20
2019-03-03T11:43:43.837Z,4.43
2019-03-03T11:46:49.287Z,2.17
2019-03-03T11:49:48.538Z,4.40
2019-03-03T11:52:35.225Z,8.53
2019-03-03T11:55:21.835Z,1.67
2019-03-03T11:57:57.642Z,3.10
2019-03-03T12:00:41.077Z,1.53
2019-03-03T12:03:27.774Z,15.60
2019-03-03T12:06:14.027Z,2.17
2019-03-03T12:09:01.870Z,2.40
2019-03-03T12:11:48.855Z,2.27
2019-03-03T12:14:51.689Z,2.17
2019-03-03T12:17:51.945Z,3.53
2019-03-03T12:20:37.756Z,9.43
2019-03-03T12:23:21.692Z,1.37
2019-03-03T12:26:28.143Z,4.00
2019-03-03T12:29:07.665Z,3.73
2019-03-03T12:31:50.725Z,1.53
2019-03-03T12:34:47.259Z,1.40
2019-03-03T12:37:37.963Z,6.13
2019-03-03T12:40:18.916Z,1.40
2019-03-03T12:43:05.440Z,4.43
2019-03-03T12:45:47.670Z,1.33
2019-03-03T12:48:34.205Z,5.60
2019-03-03T12:51:22.115Z,2.00
2019-03-03T12:54:08.671Z,1.57
2019-03-03T12:56:59.647Z,1.17
2019-03-03T12:59:37.022Z,0.80
2019-03-03T13:02:16.827Z,2.40
2019-03-03T13:05:03.642Z,2.30
2019-03-03T13:07:47.870Z,1.20
2019-03-03T13:10:41.847Z,1.33
2019-03-03T13:13:23.040Z,1.67
2019-03-03T13:16:25.967Z,1.23
2019-03-03T13:19:08.121Z,1.77
2019-03-03T13:22:05.682Z,1.50
2019-03-03T13:24:53.621Z,5.13
2019-03-03T13:27:38.185Z,1.50
2019-03-03T13:30:32.309Z,1.00
2019-03-03T13:33:18.813Z,1.33
2019-03-03T13:36:09.106Z,1.27
2019-03-03T13:39:09.062Z,1.10
2019-03-03T13:42:02.708Z,2.30
2019-03-03T13:44:31.465Z,1.00
2019-03-03T13:47:00.190Z,0.90
2019-03-03T13:49:29.019Z,1.13
2019-03-03T13:51:57.791Z,3.20
2019-03-03T13:54:26.604Z,0.73
2019-03-03T13:56:55.400Z,1.53
2019-03-03T13:59:24.201Z,1.60
2019-03-03T14:01:53.002Z,0.80
2019-03-03T14:04:21.579Z,1.33
2019-03-03T14:06:50.293Z,4.17
2019-03-03T14:09:19.059Z,1.53
2019-03-03T14:11:47.760Z,2.10
2019-03-03T14:14:16.588Z,1.83
2019-03-03T14:16:45.377Z,2.07
2019-03-03T14:19:14.359Z,2.67
2019-03-03T14:21:43.060Z,1.20
2019-03-03T14:24:11.966Z,0.70
2019-03-03T14:26:40.454Z,0.93
2019-03-03T14:29:09.575Z,1.97
2019-03-03T14:31:38.329Z,0.77
2019-03-03T14:34:07.391Z,2.60
2019-03-03T14:36:36.210Z,0.73
2019-03-03T14:39:05.912Z,1.37
2019-03-03T14:41:34.697Z,0.70
2019-03-03T14:44:03.539Z,2.60
2019-03-03T14:46:32.233Z,0.90
2019-03-03T14:49:00.653Z,1.30
2019-03-03T14:51:29.436Z,1.73
2019-03-03T14:53:58.236Z,0.77
2019-03-03T14:56:29.590Z,0.73
2019-03-03T14:58:58.314Z,1.03
2019-03-03T15:01:27.493Z,1.63
2019-03-03T15:03:56.243Z,3.50
2019-03-03T15:06:25.538Z,0.87
2019-03-03T15:08:53.936Z,0.77
2019-03-03T15:11:22.683Z,1.60
2019-03-03T15:13:51.559Z,3.53
2019-03-03T15:16:20.318Z,0.67
2019-03-03T15:18:49.183Z,1.43
2019-03-03T15:21:24.698Z,1.30
2019-03-03T15:23:48.598Z,1.27
2019-03-03T15:26:17.883Z,1.37
2019-03-03T15:28:46.711Z,1.80
2019-03-03T15:31:15.388Z,1.33
2019-03-03T15:33:44.458Z,0.93
2019-03-03T15:36:13.542Z,4.17
2019-03-03T15:38:42.366Z,2.70
2019-03-03T15:41:11.347Z,1.40
2019-03-03T15:43:40.170Z,1.73
2019-03-03T15:46:09.415Z,1.20
2019-03-03T15:48:38.850Z,0.80
2019-03-03T15:51:07.675Z,1.13
2019-03-03T15:53:36.430Z,0.90
2019-03-03T15:56:05.254Z,0.80
2019-03-03T15:58:34.359Z,2.27
2019-03-03T16:01:03.109Z,1.87
2019-03-03T16:03:31.909Z,1.20
2019-03-03T16:06:00.706Z,2.63
2019-03-03T16:08:29.450Z,1.23
2019-03-03T16:10:58.628Z,0.90
2019-03-03T16:13:27.358Z,4.27
2019-03-03T16:15:55.839Z,1.43
2019-03-03T16:18:24.656Z,2.67
2019-03-03T16:20:54.438Z,1.50
2019-03-03T16:23:23.200Z,2.73
2019-03-03T16:25:52.021Z,9.60
2019-03-03T16:28:21.491Z,0.80
2019-03-03T16:30:50.205Z,0.80
2019-03-03T16:33:20.900Z,1.00
2019-03-03T16:35:49.022Z,2.60
2019-03-03T16:38:17.780Z,3.63
2019-03-03T16:40:46.847Z,1.20
2019-03-03T16:43:15.717Z,2.30
2019-03-03T16:45:44.450Z,1.23
2019-03-03T16:48:13.280Z,13.37
2019-03-03T16:50:42.072Z,16.57
2019-03-03T16:53:10.807Z,11.57
2019-03-03T16:55:39.618Z,7.93
2019-03-03T16:58:08.223Z,13.20
2019-03-03T17:00:36.962Z,6.83
2019-03-03T17:03:05.772Z,170.33
2019-03-03T17:05:35.199Z,14.60
2019-03-03T17:08:04.703Z,19.07
2019-03-03T17:10:34.090Z,22.77
2019-03-03T17:13:03.979Z,23.90
2019-03-03T17:15:33.828Z,61.10
2019-03-03T17:18:03.176Z,51.60
2019-03-03T17:20:31.961Z,36.87
2019-03-03T17:23:00.792Z,50.93
2019-03-03T17:25:29.883Z,27.70
2019-03-03T17:27:58.651Z,25.47
2019-03-03T17:30:27.784Z,21.90
2019-03-03T17:32:56.555Z,15.50
2019-03-03T17:35:25.286Z,18.10
2019-03-03T17:37:56.378Z,27.77
2019-03-03T17:40:24.501Z,16.17
2019-03-03T17:42:53.414Z,62.10
2019-03-03T17:45:22.195Z,92.20
2019-03-03T17:47:51.115Z,29.60
2019-03-03T17:50:20.546Z,73.57
2019-03-03T17:52:49.365Z,41.93
2019-03-03T17:55:18.272Z,23.60
2019-03-03T17:57:47.014Z,16.43
2019-03-03T18:00:19.020Z,81.50
2019-03-03T18:02:47.357Z,155.77
2019-03-03T18:05:17.269Z,22.33
2019-03-03T18:07:46.111Z,47.53
2019-03-03T18:10:14.938Z,52.63
2019-03-03T18:12:43.723Z,15.60
2019-03-03T18:15:12.458Z,30.00
2019-03-03T18:17:41.193Z,84.47
2019-03-03T18:20:10.893Z,70.93
2019-03-03T18:22:40.018Z,34.80
2019-03-03T18:25:08.869Z,34.93
2019-03-03T18:27:37.685Z,9.47
2019-03-03T18:30:08.542Z,165.00
2019-03-03T18:32:37.273Z,135.67
2019-03-03T18:35:06.303Z,53.57
2019-03-03T18:37:35.338Z,68.90
2019-03-03T18:40:04.669Z,52.00
2019-03-03T18:42:33.399Z,63.27
2019-03-03T18:45:02.176Z,24.30
2019-03-03T18:47:30.501Z,166.07
2019-03-03T18:49:59.265Z,112.40
2019-03-03T18:52:28.483Z,64.47
2019-03-03T18:54:57.302Z,43.37
2019-03-03T18:57:26.404Z,29.37
2019-03-03T18:59:55.609Z,26.37
2019-03-03T19:02:24.406Z,17.10
2019-03-03T19:04:53.153Z,15.23
2019-03-03T19:07:21.984Z,13.83
2019-03-03T19:09:50.698Z,16.00
2019-03-03T19:12:19.837Z,12.80
2019-03-03T19:14:48.606Z,21.83
2019-03-03T19:17:17.665Z,44.20
2019-03-03T19:19:46.417Z,11.83
2019-03-03T19:22:15.534Z,12.70
2019-03-03T19:24:44.285Z,16.93
2019-03-03T19:27:13.077Z,14.23
2019-03-03T19:29:41.834Z,11.20
2019-03-03T19:32:10.168Z,29.00
2019-03-03T19:34:38.971Z,22.27
2019-03-03T19:37:07.991Z,19.47
2019-03-03T19:39:36.961Z,70.90
2019-03-03T19:42:05.829Z,74.00
2019-03-03T19:44:34.699Z,49.03
2019-03-03T19:47:03.443Z,32.17
2019-03-03T19:49:32.208Z,34.20
2019-03-03T19:52:00.976Z,25.03
2019-03-03T19:54:29.336Z,31.10
2019-03-03T19:56:58.080Z,26.50
2019-03-03T19:59:26.823Z,50.77
2019-03-03T20:01:55.698Z,44.20
2019-03-03T20:04:24.504Z,54.53
2019-03-03T20:06:53.354Z,49.80
2019-03-03T20:09:22.191Z,47.30
2019-03-03T20:11:50.967Z,37.77
2019-03-03T20:14:19.372Z,36.30
2019-03-03T20:16:48.128Z,27.37
2019-03-03T20:19:16.907Z,19.03
2019-03-03T20:21:46.765Z,21.40
2019-03-03T20:24:15.642Z,21.17
2019-03-03T20:26:44.424Z,13.50
2019-03-03T20:29:13.181Z,20.73
2019-03-03T20:31:42.360Z,22.83
2019-03-03T20:34:12.112Z,21.27
2019-03-03T20:36:40.677Z,15.73
2019-03-03T20:39:09.672Z,17.03
2019-03-03T20:41:38.788Z,20.23
2019-03-03T20:44:07.694Z,16.23
2019-03-03T20:46:36.507Z,15.27
2019-03-03T20:49:05.412Z,14.00
2019-03-03T20:51:34.263Z,13.33
2019-03-03T20:54:03.013Z,14.47
2019-03-03T20:56:31.733Z,10.53
2019-03-03T20:59:00.161Z,8.20
2019-03-03T21:01:29.014Z,7.10
2019-03-03T21:03:57.777Z,6.50
2019-03-03T21:06:26.721Z,8.33
2019-03-03T21:08:55.651Z,10.03
2019-03-03T21:11:24.537Z,7.40
2019-03-03T21:13:53.270Z,6.53
2019-03-03T21:16:22.116Z,9.13
2019-03-03T21:18:50.859Z,8.70
2019-03-03T21:21:19.273Z,10.00
2019-03-03T21:23:48.016Z,8.00
2019-03-03T21:26:16.881Z,11.43
2019-03-03T21:28:45.626Z,15.87
2019-03-03T21:31:14.388Z,15.50
2019-03-03T21:33:43.244Z,9.83
2019-03-03T21:36:11.974Z,7.73
2019-03-03T21:38:40.713Z,6.37
2019-03-03T21:41:09.483Z,8.23
2019-03-03T21:43:37.926Z,9.53
2019-03-03T21:46:06.637Z,13.90
2019-03-03T21:48:35.404Z,9.07
2019-03-03T21:51:04.199Z,18.50
2019-03-03T21:53:32.929Z,17.17
2019-03-03T21:56:02.199Z,20.43
2019-03-03T21:58:31.005Z,27.50
2019-03-03T22:00:59.830Z,22.40
2019-03-03T22:03:29.883Z,15.50
2019-03-03T22:05:58.610Z,11.77
2019-03-03T22:08:27.438Z,8.63
2019-03-03T22:10:56.436Z,12.90
2019-03-03T22:13:25.851Z,11.90
2019-03-03T22:15:55.130Z,9.40
2019-03-03T22:18:31.284Z,7.80
2019-03-03T22:21:00.151Z,11.10
2019-03-03T22:23:28.958Z,9.27
2019-03-03T22:25:57.450Z,6.97
2019-03-03T22:28:26.479Z,7.57
2019-03-03T22:30:57.481Z,6.70
2019-03-03T22:33:28.101Z,5.40
2019-03-03T22:35:57.045Z,7.20
2019-03-03T22:38:25.778Z,32.80
2019-03-03T22:40:57.156Z,49.93
2019-03-03T22:43:25.853Z,35.27
2019-03-03T22:45:55.162Z,29.60
2019-03-03T22:48:25.781Z,35.80
2019-03-03T22:50:55.136Z,24.10
2019-03-03T22:53:25.979Z,25.17
2019-03-03T22:55:55.038Z,18.60
2019-03-03T22:58:24.319Z,19.13
2019-03-03T23:01:04.799Z,20.23
2019-03-03T23:03:41.089Z,18.97
2019-03-03T23:06:34.669Z,20.20
2019-03-03T23:09:45.674Z,11.17
2019-03-03T23:13:03.857Z,15.80
2019-03-03T23:15:46.731Z,16.27
2019-03-03T23:18:39.279Z,13.63
2019-03-03T23:21:45.814Z,9.70
2019-03-03T23:24:45.554Z,8.13
2019-03-03T23:27:14.539Z,13.83
2019-03-03T23:29:43.689Z,24.23
2019-03-03T23:32:12.612Z,22.53
2019-03-03T23:34:41.211Z,25.27
2019-03-03T23:37:09.769Z,21.23
2019-03-03T23:39:38.444Z,12.17
2019-03-03T23:42:07.330Z,19.50
2019-03-03T23:44:38.274Z,17.40
2019-03-03T23:47:06.803Z,12.37
2019-03-03T23:49:35.856Z,11.40
2019-03-03T23:52:08.108Z,9.40
2019-03-03T23:54:37.117Z,15.83
2019-03-03T23:57:05.592Z,14.33
2019-03-03T23:59:34.531Z,12.93
